sensor_id;sensor_type;location;lat;lon;timestamp;pressure;altitude;pressure_sealevel;temperature;humidity
7824;BME280;3957;48.61947800;9.05303100;2023-03-01T00:00:49;96693.47;;;-5.21;100.00
7824;BME280;3957;48.61947800;9.05303100;2023-03-01T00:01:50;96704.75;;;-5.20;100.00
7824;BME280;3957;48.61947800;9.05303100;2023-03-01T00:02:50;96697.03;;;-5.22;100.00
7824;BME280;3957;48.61947800;9.05303100;2023-03-01T00:03:51;96695.34;;;-5.23;100.00
7824;BME280;3957;48.61947800;9.05303100;2023-03-01T00:04:52;96695.25;;;-5.21;100.00
7824;BME280;3957;48.61947800;9.05303100;2023-03-01T00:05:52;96689.19;;;-5.22;100.00
7824;BME280;3957;48.61947800;9.05303100;2023-03-01T00:06:53;96695.16;;;-5.20;100.00
7824;BME280;3957;48.61947800;9.05303100;2023-03-01T00:07:54;96686.41;;;-5.19;100.00
7824;BME280;3957;48.61947800;9.05303100;2023-03-01T00:08:54;96694.13;;;-5.17;100.00
7824;BME280;3957;48.61947800;9.05303100;2023-03-01T00:09:55;96684.63;;;-5.18;100.00
7824;BME280;3957;48.61947800;9.05303100;2023-03-01T00:11:07;96690.03;;;-5.21;100.00
7824;BME280;3957;48.61947800;9.05303100;2023-03-01T00:12:07;96692.63;;;-5.21;100.00
7824;BME280;3957;48.61947800;9.05303100;2023-03-01T00:13:08;96692.72;;;-5.23;100.00
7824;BME280;3957;48.61947800;9.05303100;2023-03-01T00:14:08;96690.03;;;-5.21;100.00
7824;BME280;3957;48.61947800;9.05303100;2023-03-01T00:15:09;96690.94;;;-5.22;100.00
7824;BME280;3957;48.61947800;9.05303100;2023-03-01T00:16:15;96690.94;;;-5.22;100.00
7824;BME280;3957;48.61947800;9.05303100;2023-03-01T00:17:15;96692.81;;;-5.24;100.00
7824;BME280;3957;48.61947800;9.05303100;2023-03-01T00:18:17;96696.44;;;-5.27;100.00
7824;BME280;3957;48.61947800;9.05303100;2023-03-01T00:19:19;96700.91;;;-5.29;100.00
7824;BME280;3957;48.61947800;9.05303100;2023-03-01T00:20:19;96696.66;;;-5.30;100.00
7824;BME280;3957;48.61947800;9.05303100;2023-03-01T00:21:20;96699.25;;;-5.30;100.00
7824;BME280;3957;48.61947800;9.05303100;2023-03-01T00:22:24;96698.47;;;-5.32;100.00
7824;BME280;3957;48.61947800;9.05303100;2023-03-01T00:23:26;96697.66;;;-5.33;100.00
7824;BME280;3957;48.61947800;9.05303100;2023-03-01T00:24:27;96701.19;;;-5.34;100.00
7824;BME280;3957;48.61947800;9.05303100;2023-03-01T00:25:27;96700.47;;;-5.36;100.00
7824;BME280;3957;48.61947800;9.05303100;2023-03-01T00:26:27;96698.00;;;-5.39;100.00
7824;BME280;3957;48.61947800;9.05303100;2023-03-01T00:27:28;96702.38;;;-5.39;100.00
7824;BME280;3957;48.61947800;9.05303100;2023-03-01T00:28:28;96699.13;;;-5.43;100.00
7824;BME280;3957;48.61947800;9.05303100;2023-03-01T00:29:29;96695.78;;;-5.45;100.00
7824;BME280;3957;48.61947800;9.05303100;2023-03-01T00:30:29;96700.13;;;-5.46;100.00
7824;BME280;3957;48.61947800;9.05303100;2023-03-01T00:31:31;96693.25;;;-5.47;100.00
7824;BME280;3957;48.61947800;9.05303100;2023-03-01T00:32:32;96695.97;;;-5.48;100.00
7824;BME280;3957;48.61947800;9.05303100;2023-03-01T00:33:33;96693.34;;;-5.48;100.00
7824;BME280;3957;48.61947800;9.05303100;2023-03-01T00:34:33;96688.97;;;-5.48;100.00
7824;BME280;3957;48.61947800;9.05303100;2023-03-01T00:35:34;96692.59;;;-5.50;100.00
7824;BME280;3957;48.61947800;9.05303100;2023-03-01T00:36:36;96687.47;;;-5.52;100.00
7824;BME280;3957;48.61947800;9.05303100;2023-03-01T00:37:37;96685.78;;;-5.53;100.00
7824;BME280;3957;48.61947800;9.05303100;2023-03-01T00:38:39;96685.97;;;-5.56;100.00
7824;BME280;3957;48.61947800;9.05303100;2023-03-01T00:39:40;96686.88;;;-5.57;100.00
7824;BME280;3957;48.61947800;9.05303100;2023-03-01T00:40:40;96688.75;;;-5.59;100.00
7824;BME280;3957;48.61947800;9.05303100;2023-03-01T00:41:41;96683.44;;;-5.57;100.00
7824;BME280;3957;48.61947800;9.05303100;2023-03-01T00:42:42;96683.44;;;-5.57;100.00
7824;BME280;3957;48.61947800;9.05303100;2023-03-01T00:43:43;96690.50;;;-5.59;100.00
7824;BME280;3957;48.61947800;9.05303100;2023-03-01T00:44:44;96680.06;;;-5.59;100.00
7824;BME280;3957;48.61947800;9.05303100;2023-03-01T00:45:44;96683.44;;;-5.57;100.00
7824;BME280;3957;48.61947800;9.05303100;2023-03-01T00:46:44;96679.91;;;-5.56;100.00
7824;BME280;3957;48.61947800;9.05303100;2023-03-01T00:47:45;96688.56;;;-5.56;100.00
7824;BME280;3957;48.61947800;9.05303100;2023-03-01T00:48:45;96683.44;;;-5.57;100.00
7824;BME280;3957;48.61947800;9.05303100;2023-03-01T00:49:46;96685.19;;;-5.58;100.00
7824;BME280;3957;48.61947800;9.05303100;2023-03-01T00:50:46;96688.09;;;-5.63;100.00
7824;BME280;3957;48.61947800;9.05303100;2023-03-01T00:51:47;96676.91;;;-5.65;100.00
7824;BME280;3957;48.61947800;9.05303100;2023-03-01T00:52:52;96677.84;;;-5.66;100.00
7824;BME280;3957;48.61947800;9.05303100;2023-03-01T00:53:54;96679.63;;;-5.66;100.00
7824;BME280;3957;48.61947800;9.05303100;2023-03-01T00:54:55;96674.56;;;-5.69;100.00
7824;BME280;3957;48.61947800;9.05303100;2023-03-01T00:55:57;96676.44;;;-5.71;100.00
7824;BME280;3957;48.61947800;9.05303100;2023-03-01T00:56:58;96679.03;;;-5.71;100.00
7824;BME280;3957;48.61947800;9.05303100;2023-03-01T00:57:58;96678.19;;;-5.72;100.00
7824;BME280;3957;48.61947800;9.05303100;2023-03-01T00:58:59;96674.84;;;-5.74;100.00
7824;BME280;3957;48.61947800;9.05303100;2023-03-01T00:59:59;96679.13;;;-5.73;100.00
7824;BME280;3957;48.61947800;9.05303100;2023-03-01T01:01:00;96674.00;;;-5.74;100.00
7824;BME280;3957;48.61947800;9.05303100;2023-03-01T01:02:00;96674.94;;;-5.75;100.00
7824;BME280;3957;48.61947800;9.05303100;2023-03-01T01:03:01;96671.47;;;-5.76;100.00
7824;BME280;3957;48.61947800;9.05303100;2023-03-01T01:04:04;96677.63;;;-5.77;100.00
7824;BME280;3957;48.61947800;9.05303100;2023-03-01T01:05:06;96662.06;;;-5.78;100.00
7824;BME280;3957;48.61947800;9.05303100;2023-03-01T01:06:13;96673.34;;;-5.78;100.00
7824;BME280;3957;48.61947800;9.05303100;2023-03-01T01:07:14;96670.53;;;-5.75;100.00
7824;BME280;3957;48.61947800;9.05303100;2023-03-01T01:08:14;96669.63;;;-5.74;100.00
7824;BME280;3957;48.61947800;9.05303100;2023-03-01T01:09:16;96671.47;;;-5.76;100.00
7824;BME280;3957;48.61947800;9.05303100;2023-03-01T01:10:17;96671.47;;;-5.76;100.00
7824;BME280;3957;48.61947800;9.05303100;2023-03-01T01:11:18;96668.94;;;-5.77;100.00
7824;BME280;3957;48.61947800;9.05303100;2023-03-01T01:12:19;96664.69;;;-5.78;100.00
7824;BME280;3957;48.61947800;9.05303100;2023-03-01T01:13:19;96662.91;;;-5.78;100.00
7824;BME280;3957;48.61947800;9.05303100;2023-03-01T01:14:20;96665.50;;;-5.78;100.00
7824;BME280;3957;48.61947800;9.05303100;2023-03-01T01:15:20;96663.81;;;-5.79;100.00
7824;BME280;3957;48.61947800;9.05303100;2023-03-01T01:16:22;96662.22;;;-5.82;100.00
7824;BME280;3957;48.61947800;9.05303100;2023-03-01T01:17:23;96661.41;;;-5.82;100.00
7824;BME280;3957;48.61947800;9.05303100;2023-03-01T01:18:23;96660.72;;;-5.86;100.00
7824;BME280;3957;48.61947800;9.05303100;2023-03-01T01:19:24;96656.47;;;-5.87;100.00
7824;BME280;3957;48.61947800;9.05303100;2023-03-01T01:20:25;96661.00;;;-5.90;100.00
7824;BME280;3957;48.61947800;9.05303100;2023-03-01T01:21:26;96660.19;;;-5.91;100.00
7824;BME280;3957;48.61947800;9.05303100;2023-03-01T01:22:27;96650.69;;;-5.92;100.00
7824;BME280;3957;48.61947800;9.05303100;2023-03-01T01:23:27;96654.19;;;-5.93;100.00
7824;BME280;3957;48.61947800;9.05303100;2023-03-01T01:24:28;96657.72;;;-5.94;100.00
7824;BME280;3957;48.61947800;9.05303100;2023-03-01T01:25:28;96648.91;;;-5.91;100.00
7824;BME280;3957;48.61947800;9.05303100;2023-03-01T01:26:31;96654.19;;;-5.93;100.00
7824;BME280;3957;48.61947800;9.05303100;2023-03-01T01:27:32;96649.00;;;-5.93;100.00
7824;BME280;3957;48.61947800;9.05303100;2023-03-01T01:28:32;96654.19;;;-5.93;100.00
7824;BME280;3957;48.61947800;9.05303100;2023-03-01T01:29:32;96647.31;;;-5.94;100.00
7824;BME280;3957;48.61947800;9.05303100;2023-03-01T01:30:33;96645.56;;;-5.93;100.00
7824;BME280;3957;48.61947800;9.05303100;2023-03-01T01:31:35;96649.81;;;-5.92;100.00
7824;BME280;3957;48.61947800;9.05303100;2023-03-01T01:32:35;96644.69;;;-5.94;100.00
7824;BME280;3957;48.61947800;9.05303100;2023-03-01T01:33:36;96646.38;;;-5.93;100.00
7824;BME280;3957;48.61947800;9.05303100;2023-03-01T01:34:37;96643.78;;;-5.93;100.00
7824;BME280;3957;48.61947800;9.05303100;2023-03-01T01:35:38;96641.25;;;-5.94;100.00
7824;BME280;3957;48.61947800;9.05303100;2023-03-01T01:36:38;96646.56;;;-5.96;100.00
7824;BME280;3957;48.61947800;9.05303100;2023-03-01T01:37:39;96643.13;;;-5.96;100.00
7824;BME280;3957;48.61947800;9.05303100;2023-03-01T01:38:39;96650.00;;;-5.95;100.00
7824;BME280;3957;48.61947800;9.05303100;2023-03-01T01:39:40;96649.81;;;-5.92;100.00
7824;BME280;3957;48.61947800;9.05303100;2023-03-01T01:40:47;96648.06;;;-5.92;100.00
7824;BME280;3957;48.61947800;9.05303100;2023-03-01T01:41:48;96638.47;;;-5.91;100.00
7824;BME280;3957;48.61947800;9.05303100;2023-03-01T01:42:49;96640.16;;;-5.90;100.00
7824;BME280;3957;48.61947800;9.05303100;2023-03-01T01:45:34;96633.75;;;-5.85;100.00
7824;BME280;3957;48.61947800;9.05303100;2023-03-01T01:46:37;96640.91;;;-5.88;100.00
7824;BME280;3957;48.61947800;9.05303100;2023-03-01T01:47:39;96638.22;;;-5.87;100.00
7824;BME280;3957;48.61947800;9.05303100;2023-03-01T01:48:42;96641.75;;;-5.88;100.00
7824;BME280;3957;48.61947800;9.05303100;2023-03-01T01:49:46;96641.75;;;-5.88;100.00
7824;BME280;3957;48.61947800;9.05303100;2023-03-01T01:50:55;96641.75;;;-5.88;100.00
7824;BME280;3957;48.61947800;9.05303100;2023-03-01T01:52:04;96638.22;;;-5.87;100.00
7824;BME280;3957;48.61947800;9.05303100;2023-03-01T01:53:16;96646.59;;;-5.82;100.00
7824;BME280;3957;48.61947800;9.05303100;2023-03-01T01:54:23;96636.16;;;-5.82;100.00
7824;BME280;3957;48.61947800;9.05303100;2023-03-01T01:55:26;96643.16;;;-5.82;100.00
7824;BME280;3957;48.61947800;9.05303100;2023-03-01T01:56:28;96643.16;;;-5.82;100.00
7824;BME280;3957;48.61947800;9.05303100;2023-03-01T01:57:33;96638.78;;;-5.82;100.00
7824;BME280;3957;48.61947800;9.05303100;2023-03-01T01:58:35;96637.94;;;-5.82;100.00
7824;BME280;3957;48.61947800;9.05303100;2023-03-01T01:59:36;96634.16;;;-5.76;100.00
7824;BME280;3957;48.61947800;9.05303100;2023-03-01T02:00:38;96643.56;;;-5.74;100.00
7824;BME280;3957;48.61947800;9.05303100;2023-03-01T02:01:39;96635.81;;;-5.75;100.00
7824;BME280;3957;48.61947800;9.05303100;2023-03-01T02:02:40;96633.03;;;-5.72;100.00
7824;BME280;3957;48.61947800;9.05303100;2023-03-01T02:03:44;96629.41;;;-5.70;100.00
7824;BME280;3957;48.61947800;9.05303100;2023-03-01T02:04:48;96631.84;;;-5.67;100.00
7824;BME280;3957;48.61947800;9.05303100;2023-03-01T02:05:55;96633.34;;;-5.63;100.00
7824;BME280;3957;48.61947800;9.05303100;2023-03-01T02:07:01;96631.31;;;-5.57;100.00
7824;BME280;3957;48.61947800;9.05303100;2023-03-01T02:08:04;96633.63;;;-5.53;100.00
7824;BME280;3957;48.61947800;9.05303100;2023-03-01T02:09:11;96621.25;;;-5.49;100.00
7824;BME280;3957;48.61947800;9.05303100;2023-03-01T02:10:12;96630.38;;;-5.42;100.00
7824;BME280;3957;48.61947800;9.05303100;2023-03-01T02:11:13;96622.94;;;-5.34;100.00
7824;BME280;3957;48.61947800;9.05303100;2023-03-01T02:12:17;96627.88;;;-5.29;100.00
7824;BME280;3957;48.61947800;9.05303100;2023-03-01T02:13:18;96622.19;;;-5.21;100.00
7824;BME280;3957;48.61947800;9.05303100;2023-03-01T02:14:18;96622.75;;;-5.16;100.00
7824;BME280;3957;48.61947800;9.05303100;2023-03-01T02:15:19;96619.66;;;-5.08;100.00
7824;BME280;3957;48.61947800;9.05303100;2023-03-01T02:16:21;96616.69;;;-5.02;100.00
7824;BME280;3957;48.61947800;9.05303100;2023-03-01T02:17:22;96612.97;;;-4.98;100.00
7824;BME280;3957;48.61947800;9.05303100;2023-03-01T02:18:23;96623.00;;;-4.92;100.00
7824;BME280;3957;48.61947800;9.05303100;2023-03-01T02:22:16;96619.28;;;-4.73;100.00
7824;BME280;3957;48.61947800;9.05303100;2023-03-01T02:23:19;96620.00;;;-4.71;100.00
7824;BME280;3957;48.61947800;9.05303100;2023-03-01T02:24:35;96609.28;;;-4.67;100.00
7824;BME280;3957;48.61947800;9.05303100;2023-03-01T02:26:53;96612.53;;;-4.63;100.00
7824;BME280;3957;48.61947800;9.05303100;2023-03-01T02:28:58;96611.19;;;-4.56;100.00
7824;BME280;3957;48.61947800;9.05303100;2023-03-01T02:30:00;96609.44;;;-4.55;100.00
7824;BME280;3957;48.61947800;9.05303100;2023-03-01T02:31:01;96612.88;;;-4.55;100.00
7824;BME280;3957;48.61947800;9.05303100;2023-03-01T02:32:21;96610.72;;;-4.48;100.00
7824;BME280;3957;48.61947800;9.05303100;2023-03-01T02:33:26;96603.53;;;-4.45;100.00
7824;BME280;3957;48.61947800;9.05303100;2023-03-01T02:34:27;96598.13;;;-4.41;100.00
7824;BME280;3957;48.61947800;9.05303100;2023-03-01T02:35:32;96602.94;;;-4.35;100.00
7824;BME280;3957;48.61947800;9.05303100;2023-03-01T02:36:38;96600.53;;;-4.38;100.00
7824;BME280;3957;48.61947800;9.05303100;2023-03-01T02:37:41;96599.69;;;-4.39;100.00
7824;BME280;3957;48.61947800;9.05303100;2023-03-01T02:38:42;96602.09;;;-4.36;100.00
7824;BME280;3957;48.61947800;9.05303100;2023-03-01T02:39:47;96597.72;;;-4.35;100.00
7824;BME280;3957;48.61947800;9.05303100;2023-03-01T02:40:49;96592.31;;;-4.32;100.00
7824;BME280;3957;48.61947800;9.05303100;2023-03-01T02:41:52;96594.72;;;-4.29;100.00
7824;BME280;3957;48.61947800;9.05303100;2023-03-01T02:42:56;96593.75;;;-4.28;100.00
7824;BME280;3957;48.61947800;9.05303100;2023-03-01T02:43:57;96585.63;;;-4.23;100.00
7824;BME280;3957;48.61947800;9.05303100;2023-03-01T02:44:58;96588.16;;;-4.22;100.00
7824;BME280;3957;48.61947800;9.05303100;2023-03-01T02:46:03;96588.88;;;-4.20;100.00
7824;BME280;3957;48.61947800;9.05303100;2023-03-01T02:47:04;96588.69;;;-4.17;100.00
7824;BME280;3957;48.61947800;9.05303100;2023-03-01T02:48:06;96588.38;;;-4.12;100.00
7824;BME280;3957;48.61947800;9.05303100;2023-03-01T02:49:24;96585.44;;;-4.07;100.00
7824;BME280;3957;48.61947800;9.05303100;2023-03-01T02:55:18;96577.75;;;-3.96;100.00
7824;BME280;3957;48.61947800;9.05303100;2023-03-01T02:56:18;96577.75;;;-3.96;100.00
7824;BME280;3957;48.61947800;9.05303100;2023-03-01T02:57:19;96576.69;;;-3.94;100.00
7824;BME280;3957;48.61947800;9.05303100;2023-03-01T02:58:20;96576.31;;;-3.87;100.00
7824;BME280;3957;48.61947800;9.05303100;2023-03-01T02:59:26;96578.28;;;-3.91;100.00
7824;BME280;3957;48.61947800;9.05303100;2023-03-01T03:00:35;96571.28;;;-3.90;100.00
7824;BME280;3957;48.61947800;9.05303100;2023-03-01T03:01:39;96584.97;;;-3.87;100.00
7824;BME280;3957;48.61947800;9.05303100;2023-03-01T03:02:42;96575.38;;;-3.86;100.00
7824;BME280;3957;48.61947800;9.05303100;2023-03-01T03:03:48;96574.50;;;-3.87;100.00
7824;BME280;3957;48.61947800;9.05303100;2023-03-01T03:04:49;96575.25;;;-3.85;100.00
7824;BME280;3957;48.61947800;9.05303100;2023-03-01T03:05:49;96570.66;;;-3.81;100.00
7824;BME280;3957;48.61947800;9.05303100;2023-03-01T03:06:51;96575.88;;;-3.81;100.00
7824;BME280;3957;48.61947800;9.05303100;2023-03-01T03:07:51;96569.72;;;-3.80;100.00
7824;BME280;3957;48.61947800;9.05303100;2023-03-01T03:08:52;96569.72;;;-3.80;100.00
7824;BME280;3957;48.61947800;9.05303100;2023-03-01T03:09:53;96564.47;;;-3.80;100.00
7824;BME280;3957;48.61947800;9.05303100;2023-03-01T03:10:53;96567.84;;;-3.78;100.00
7824;BME280;3957;48.61947800;9.05303100;2023-03-01T03:11:53;96565.34;;;-3.80;100.00
7824;BME280;3957;48.61947800;9.05303100;2023-03-01T03:13:16;96567.75;;;-3.77;100.00
7824;BME280;3957;48.61947800;9.05303100;2023-03-01T03:14:17;96558.97;;;-3.76;100.00
7824;BME280;3957;48.61947800;9.05303100;2023-03-01T03:15:21;96567.00;;;-3.79;100.00
7824;BME280;3957;48.61947800;9.05303100;2023-03-01T03:16:21;96557.41;;;-3.78;100.00
7824;BME280;3957;48.61947800;9.05303100;2023-03-01T03:17:22;96562.63;;;-3.78;100.00
7824;BME280;3957;48.61947800;9.05303100;2023-03-01T03:18:23;96557.19;;;-3.75;100.00
7824;BME280;3957;48.61947800;9.05303100;2023-03-01T03:19:26;96555.38;;;-3.74;100.00
7824;BME280;3957;48.61947800;9.05303100;2023-03-01T03:20:27;96555.19;;;-3.71;100.00
7824;BME280;3957;48.61947800;9.05303100;2023-03-01T03:21:28;96552.97;;;-3.65;100.00
7824;BME280;3957;48.61947800;9.05303100;2023-03-01T03:22:29;96554.06;;;-3.67;100.00
7824;BME280;3957;48.61947800;9.05303100;2023-03-01T03:23:29;96561.78;;;-3.66;100.00
7824;BME280;3957;48.61947800;9.05303100;2023-03-01T03:24:30;96559.06;;;-3.64;100.00
7824;BME280;3957;48.61947800;9.05303100;2023-03-01T03:25:37;96552.16;;;-3.65;100.00
7824;BME280;3957;48.61947800;9.05303100;2023-03-01T03:26:38;96564.31;;;-3.64;100.00
7824;BME280;3957;48.61947800;9.05303100;2023-03-01T03:27:40;96557.50;;;-3.67;100.00
7824;BME280;3957;48.61947800;9.05303100;2023-03-01T03:28:40;96555.59;;;-3.65;100.00
7824;BME280;3957;48.61947800;9.05303100;2023-03-01T03:29:41;96561.69;;;-3.64;100.00
7824;BME280;3957;48.61947800;9.05303100;2023-03-01T03:30:43;96561.69;;;-3.64;100.00
7824;BME280;3957;48.61947800;9.05303100;2023-03-01T03:31:44;96555.53;;;-3.63;100.00
7824;BME280;3957;48.61947800;9.05303100;2023-03-01T03:32:46;96559.78;;;-3.62;100.00
7824;BME280;3957;48.61947800;9.05303100;2023-03-01T03:33:54;96552.91;;;-3.63;100.00
7824;BME280;3957;48.61947800;9.05303100;2023-03-01T03:34:54;96558.84;;;-3.61;100.00
7824;BME280;3957;48.61947800;9.05303100;2023-03-01T03:35:55;96561.47;;;-3.61;100.00
7824;BME280;3957;48.61947800;9.05303100;2023-03-01T03:36:56;96556.13;;;-3.60;100.00
7824;BME280;3957;48.61947800;9.05303100;2023-03-01T03:38:01;96558.75;;;-3.60;100.00
7824;BME280;3957;48.61947800;9.05303100;2023-03-01T03:39:01;96566.28;;;-3.55;100.00
7824;BME280;3957;48.61947800;9.05303100;2023-03-01T03:40:02;96556.56;;;-3.53;100.00
7824;BME280;3957;48.61947800;9.05303100;2023-03-01T03:41:05;96556.66;;;-3.54;100.00
7824;BME280;3957;48.61947800;9.05303100;2023-03-01T03:42:07;96557.38;;;-3.52;100.00
7824;BME280;3957;48.61947800;9.05303100;2023-03-01T03:43:16;96549.41;;;-3.51;100.00
7824;BME280;3957;48.61947800;9.05303100;2023-03-01T03:44:16;96543.38;;;-3.51;100.00
7824;BME280;3957;48.61947800;9.05303100;2023-03-01T03:45:17;96556.22;;;-3.48;100.00
7824;BME280;3957;48.61947800;9.05303100;2023-03-01T03:46:18;96542.44;;;-3.50;100.00
7824;BME280;3957;48.61947800;9.05303100;2023-03-01T03:47:18;96551.09;;;-3.50;100.00
7824;BME280;3957;48.61947800;9.05303100;2023-03-01T03:48:18;96551.97;;;-3.49;100.00
7824;BME280;3957;48.61947800;9.05303100;2023-03-01T03:49:19;96551.09;;;-3.50;100.00
7824;BME280;3957;48.61947800;9.05303100;2023-03-01T03:50:19;96545.66;;;-3.47;100.00
7824;BME280;3957;48.61947800;9.05303100;2023-03-01T03:51:20;96551.97;;;-3.49;100.00
7824;BME280;3957;48.61947800;9.05303100;2023-03-01T03:52:22;96549.25;;;-3.48;100.00
7824;BME280;3957;48.61947800;9.05303100;2023-03-01T03:53:25;96543.91;;;-3.46;100.00
7824;BME280;3957;48.61947800;9.05303100;2023-03-01T03:54:25;96550.69;;;-3.44;100.00
7824;BME280;3957;48.61947800;9.05303100;2023-03-01T03:55:26;96554.38;;;-3.46;100.00
7824;BME280;3957;48.61947800;9.05303100;2023-03-01T03:56:30;96540.22;;;-3.44;100.00
7824;BME280;3957;48.61947800;9.05303100;2023-03-01T03:57:30;96542.63;;;-3.40;100.00
7824;BME280;3957;48.61947800;9.05303100;2023-03-01T03:58:31;96548.09;;;-3.44;100.00
7824;BME280;3957;48.61947800;9.05303100;2023-03-01T03:59:32;96546.28;;;-3.43;100.00
7824;BME280;3957;48.61947800;9.05303100;2023-03-01T04:00:34;96540.22;;;-3.44;100.00
7824;BME280;3957;48.61947800;9.05303100;2023-03-01T04:01:35;96541.88;;;-3.43;100.00
7824;BME280;3957;48.61947800;9.05303100;2023-03-01T04:02:36;96542.84;;;-3.44;100.00
7824;BME280;3957;48.61947800;9.05303100;2023-03-01T04:03:36;96540.13;;;-3.42;100.00
7824;BME280;3957;48.61947800;9.05303100;2023-03-01T04:04:36;96539.09;;;-3.39;100.00
7824;BME280;3957;48.61947800;9.05303100;2023-03-01T04:05:38;96538.22;;;-3.40;100.00
7824;BME280;3957;48.61947800;9.05303100;2023-03-01T04:06:39;96532.88;;;-3.38;100.00
7824;BME280;3957;48.61947800;9.05303100;2023-03-01T04:07:40;96533.84;;;-3.39;100.00
7824;BME280;3957;48.61947800;9.05303100;2023-03-01T04:08:40;96531.13;;;-3.38;100.00
7824;BME280;3957;48.61947800;9.05303100;2023-03-01T04:09:42;96533.00;;;-3.40;100.00
7824;BME280;3957;48.61947800;9.05303100;2023-03-01T04:10:45;96541.47;;;-3.36;100.00
7824;BME280;3957;48.61947800;9.05303100;2023-03-01T04:11:46;96533.63;;;-3.36;100.00
7824;BME280;3957;48.61947800;9.05303100;2023-03-01T04:12:46;96537.19;;;-3.37;100.00
7824;BME280;3957;48.61947800;9.05303100;2023-03-01T04:13:47;96530.19;;;-3.37;100.00
7824;BME280;3957;48.61947800;9.05303100;2023-03-01T04:14:48;96533.63;;;-3.36;100.00
7824;BME280;3957;48.61947800;9.05303100;2023-03-01T04:15:49;96526.81;;;-3.39;100.00
7824;BME280;3957;48.61947800;9.05303100;2023-03-01T04:16:50;96523.78;;;-3.33;100.00
7824;BME280;3957;48.61947800;9.05303100;2023-03-01T04:17:52;96526.31;;;-3.31;100.00
7824;BME280;3957;48.61947800;9.05303100;2023-03-01T04:18:53;96529.84;;;-3.32;100.00
7824;BME280;3957;48.61947800;9.05303100;2023-03-01T04:19:53;96526.50;;;-3.34;100.00
7824;BME280;3957;48.61947800;9.05303100;2023-03-01T04:20:53;96521.25;;;-3.34;100.00
7824;BME280;3957;48.61947800;9.05303100;2023-03-01T04:21:55;96523.38;;;-3.39;100.00
7824;BME280;3957;48.61947800;9.05303100;2023-03-01T04:23:11;96528.50;;;-3.38;100.00
7824;BME280;3957;48.61947800;9.05303100;2023-03-01T04:24:15;96525.66;;;-3.35;100.00
7824;BME280;3957;48.61947800;9.05303100;2023-03-01T04:25:16;96524.72;;;-3.34;100.00
7824;BME280;3957;48.61947800;9.05303100;2023-03-01T04:26:16;96524.72;;;-3.34;100.00
7824;BME280;3957;48.61947800;9.05303100;2023-03-01T04:27:17;96520.88;;;-3.41;100.00
7824;BME280;3957;48.61947800;9.05303100;2023-03-01T04:28:17;96524.00;;;-3.36;100.00
7824;BME280;3957;48.61947800;9.05303100;2023-03-01T04:29:18;96524.00;;;-3.36;100.00
7824;BME280;3957;48.61947800;9.05303100;2023-03-01T04:30:18;96526.59;;;-3.36;100.00
7824;BME280;3957;48.61947800;9.05303100;2023-03-01T04:31:20;96521.25;;;-3.34;100.00
7824;BME280;3957;48.61947800;9.05303100;2023-03-01T04:32:21;96523.88;;;-3.34;100.00
7824;BME280;3957;48.61947800;9.05303100;2023-03-01T04:33:22;96523.88;;;-3.34;100.00
7824;BME280;3957;48.61947800;9.05303100;2023-03-01T04:34:23;96524.00;;;-3.36;100.00
7824;BME280;3957;48.61947800;9.05303100;2023-03-01T04:35:23;96524.94;;;-3.37;100.00
7824;BME280;3957;48.61947800;9.05303100;2023-03-01T04:36:27;96523.88;;;-3.34;100.00
7824;BME280;3957;48.61947800;9.05303100;2023-03-01T04:37:28;96522.81;;;-3.32;100.00
7824;BME280;3957;48.61947800;9.05303100;2023-03-01T04:38:29;96521.91;;;-3.31;100.00
7824;BME280;3957;48.61947800;9.05303100;2023-03-01T04:39:30;96521.91;;;-3.31;100.00
7824;BME280;3957;48.61947800;9.05303100;2023-03-01T04:40:31;96512.25;;;-3.30;100.00
7824;BME280;3957;48.61947800;9.05303100;2023-03-01T04:41:31;96519.28;;;-3.31;100.00
7824;BME280;3957;48.61947800;9.05303100;2023-03-01T04:42:32;96506.19;;;-3.31;100.00
7824;BME280;3957;48.61947800;9.05303100;2023-03-01T04:43:33;96522.00;;;-3.32;100.00
7824;BME280;3957;48.61947800;9.05303100;2023-03-01T04:44:34;96515.72;;;-3.30;100.00
7824;BME280;3957;48.61947800;9.05303100;2023-03-01T04:45:34;96521.78;;;-3.29;100.00
7824;BME280;3957;48.61947800;9.05303100;2023-03-01T04:46:35;96513.59;;;-3.25;100.00
7824;BME280;3957;48.61947800;9.05303100;2023-03-01T04:47:36;96512.78;;;-3.25;100.00
7824;BME280;3957;48.61947800;9.05303100;2023-03-01T04:48:39;96517.19;;;-3.26;100.00
7824;BME280;3957;48.61947800;9.05303100;2023-03-01T04:49:40;96512.88;;;-3.27;100.00
7824;BME280;3957;48.61947800;9.05303100;2023-03-01T04:50:40;96518.00;;;-3.25;100.00
7824;BME280;3957;48.61947800;9.05303100;2023-03-01T04:51:41;96517.06;;;-3.24;100.00
7824;BME280;3957;48.61947800;9.05303100;2023-03-01T04:52:42;96518.75;;;-3.23;100.00
7824;BME280;3957;48.61947800;9.05303100;2023-03-01T04:53:43;96507.66;;;-3.27;100.00
7824;BME280;3957;48.61947800;9.05303100;2023-03-01T04:54:43;96512.44;;;-3.20;100.00
7824;BME280;3957;48.61947800;9.05303100;2023-03-01T04:55:43;96508.19;;;-3.21;100.00
7824;BME280;3957;48.61947800;9.05303100;2023-03-01T04:56:44;96506.59;;;-3.24;100.00
7824;BME280;3957;48.61947800;9.05303100;2023-03-01T04:57:45;96512.44;;;-3.20;100.00
7824;BME280;3957;48.61947800;9.05303100;2023-03-01T04:58:46;96513.41;;;-3.21;100.00
7824;BME280;3957;48.61947800;9.05303100;2023-03-01T04:59:46;96516.75;;;-3.19;100.00
7824;BME280;3957;48.61947800;9.05303100;2023-03-01T05:00:47;96509.94;;;-3.22;100.00
7824;BME280;3957;48.61947800;9.05303100;2023-03-01T05:01:48;96520.22;;;-3.19;100.00
7824;BME280;3957;48.61947800;9.05303100;2023-03-01T05:02:51;96516.13;;;-3.23;100.00
7824;BME280;3957;48.61947800;9.05303100;2023-03-01T05:03:53;96516.03;;;-3.21;100.00
7824;BME280;3957;48.61947800;9.05303100;2023-03-01T05:04:53;96515.16;;;-3.22;100.00